sensor_id;sensor_type;location;lat;lon;timestamp;pressure;altitude;pressure_sealevel;temperature;humidity
47524;BME280;33253;42.144;25.884;2022-12-10T00:00:52;100064.97;;;7.70;100.00
47524;BME280;33253;42.144;25.884;2022-12-10T00:03:18;100107.97;;;7.96;100.00
47524;BME280;33253;42.144;25.884;2022-12-10T00:05:43;100068.47;;;7.72;100.00
47524;BME280;33253;42.144;25.884;2022-12-10T00:08:09;100093.84;;;7.86;100.00
47524;BME280;33253;42.144;25.884;2022-12-10T00:10:39;100095.56;;;7.85;100.00
47524;BME280;33253;42.144;25.884;2022-12-10T00:13:04;100108.78;;;7.94;100.00
47524;BME280;33253;42.144;25.884;2022-12-10T00:15:29;100117.78;;;7.85;100.00
47524;BME280;33253;42.144;25.884;2022-12-10T00:17:55;100107.59;;;7.86;100.00
47524;BME280;33253;42.144;25.884;2022-12-10T00:20:20;100051.13;;;7.47;100.00
47524;BME280;33253;42.144;25.884;2022-12-10T00:22:46;100080.50;;;7.73;100.00
47524;BME280;33253;42.144;25.884;2022-12-10T00:25:11;100025.44;;;7.47;100.00
47524;BME280;33253;42.144;25.884;2022-12-10T00:27:37;100092.34;;;7.91;100.00
47524;BME280;33253;42.144;25.884;2022-12-10T00:30:02;100095.69;;;7.88;100.00
47524;BME280;33253;42.144;25.884;2022-12-10T00:32:28;100081.38;;;7.74;100.00
47524;BME280;33253;42.144;25.884;2022-12-10T00:34:53;100092.22;;;7.67;100.00
47524;BME280;33253;42.144;25.884;2022-12-10T00:37:19;100025.94;;;7.38;100.00
47524;BME280;33253;42.144;25.884;2022-12-10T00:39:44;100090.28;;;7.82;100.00
47524;BME280;33253;42.144;25.884;2022-12-10T00:42:09;100070.38;;;7.76;100.00
47524;BME280;33253;42.144;25.884;2022-12-10T00:44:35;100053.19;;;7.75;100.00
47524;BME280;33253;42.144;25.884;2022-12-10T00:47:00;100092.66;;;7.99;100.00
47524;BME280;33253;42.144;25.884;2022-12-10T00:49:26;100070.94;;;7.90;100.00
47524;BME280;33253;42.144;25.884;2022-12-10T00:51:51;100085.41;;;8.09;100.00
47524;BME280;33253;42.144;25.884;2022-12-10T00:54:16;100066.97;;;7.99;100.00
47524;BME280;33253;42.144;25.884;2022-12-10T00:56:42;100084.53;;;8.09;100.00
47524;BME280;33253;42.144;25.884;2022-12-10T00:59:08;100025.84;;;7.77;100.00
47524;BME280;33253;42.144;25.884;2022-12-10T01:01:39;100042.41;;;7.84;100.00
47524;BME280;33253;42.144;25.884;2022-12-10T01:04:11;100079.69;;;7.96;100.00
47524;BME280;33253;42.144;25.884;2022-12-10T01:09:10;100067.28;;;7.85;100.00
47524;BME280;33253;42.144;25.884;2022-12-10T01:11:38;100047.84;;;7.71;100.00
47524;BME280;33253;42.144;25.884;2022-12-10T01:14:06;100058.53;;;7.80;100.00
47524;BME280;33253;42.144;25.884;2022-12-10T01:16:32;100036.75;;;7.72;100.00
47524;BME280;33253;42.144;25.884;2022-12-10T01:18:58;100063.56;;;8.00;100.00
47524;BME280;33253;42.144;25.884;2022-12-10T01:21:26;100072.09;;;7.99;100.00
47524;BME280;33253;42.144;25.884;2022-12-10T01:23:52;100076.28;;;7.95;100.00
47524;BME280;33253;42.144;25.884;2022-12-10T01:26:20;100080.66;;;7.98;100.00
47524;BME280;33253;42.144;25.884;2022-12-10T01:28:46;100083.88;;;7.93;100.00
47524;BME280;33253;42.144;25.884;2022-12-10T01:31:15;100074.66;;;7.99;100.00
47524;BME280;33253;42.144;25.884;2022-12-10T01:33:41;100067.66;;;7.94;100.00
47524;BME280;33253;42.144;25.884;2022-12-10T01:36:10;100029.50;;;7.61;100.00
47524;BME280;33253;42.144;25.884;2022-12-10T01:38:36;100063.06;;;7.87;100.00
47524;BME280;33253;42.144;25.884;2022-12-10T01:41:02;100025.72;;;7.74;100.00
47524;BME280;33253;42.144;25.884;2022-12-10T01:43:55;100046.41;;;7.99;100.00
47524;BME280;33253;42.144;25.884;2022-12-10T01:46:22;100052.44;;;7.99;100.00
47524;BME280;33253;42.144;25.884;2022-12-10T01:48:49;100045.66;;;8.01;100.00
47524;BME280;33253;42.144;25.884;2022-12-10T01:51:15;100027.72;;;8.03;100.00
47524;BME280;33253;42.144;25.884;2022-12-10T01:53:42;100049.66;;;8.16;100.00
47524;BME280;33253;42.144;25.884;2022-12-10T01:56:11;100046.38;;;8.20;100.00
47524;BME280;33253;42.144;25.884;2022-12-10T01:58:37;100040.44;;;8.21;100.00
47524;BME280;33253;42.144;25.884;2022-12-10T02:01:09;100036.09;;;8.20;100.00
47524;BME280;33253;42.144;25.884;2022-12-10T02:12:20;100032.63;;;8.40;100.00
47524;BME280;33253;42.144;25.884;2022-12-10T02:15:02;100025.66;;;8.38;100.00
47524;BME280;33253;42.144;25.884;2022-12-10T02:17:34;100029.75;;;8.33;100.00
47524;BME280;33253;42.144;25.884;2022-12-10T02:20:15;100025.75;;;8.18;100.00
47524;BME280;33253;42.144;25.884;2022-12-10T02:22:50;100015.41;;;8.17;100.00
47524;BME280;33253;42.144;25.884;2022-12-10T02:25:20;100020.38;;;8.12;100.00
47524;BME280;33253;42.144;25.884;2022-12-10T02:27:58;99982.47;;;7.85;100.00
47524;BME280;33253;42.144;25.884;2022-12-10T02:30:28;100009.72;;;8.03;100.00
47524;BME280;33253;42.144;25.884;2022-12-10T02:32:56;100001.03;;;7.78;100.00
47524;BME280;33253;42.144;25.884;2022-12-10T02:35:27;100000.78;;;7.72;100.00
47524;BME280;33253;42.144;25.884;2022-12-10T02:37:58;100024.47;;;7.86;100.00
47524;BME280;33253;42.144;25.884;2022-12-10T02:40:30;100018.28;;;7.81;100.00
47524;BME280;33253;42.144;25.884;2022-12-10T02:42:56;100024.59;;;7.68;100.00
47524;BME280;33253;42.144;25.884;2022-12-10T02:45:25;100022.03;;;7.68;100.00
47524;BME280;33253;42.144;25.884;2022-12-10T02:47:54;100010.91;;;7.69;100.00
47524;BME280;33253;42.144;25.884;2022-12-10T02:50:21;99996.25;;;7.66;100.00
47524;BME280;33253;42.144;25.884;2022-12-10T02:52:46;99990.31;;;7.67;100.00
47524;BME280;33253;42.144;25.884;2022-12-10T02:55:13;99990.56;;;7.73;100.00
47524;BME280;33253;42.144;25.884;2022-12-10T02:57:55;99994.13;;;7.77;100.00
47524;BME280;33253;42.144;25.884;2022-12-10T03:00:31;99947.66;;;7.50;100.00
47524;BME280;33253;42.144;25.884;2022-12-10T03:08:15;99987.28;;;7.77;100.00
47524;BME280;33253;42.144;25.884;2022-12-10T03:13:45;99984.09;;;7.62;100.00
47524;BME280;33253;42.144;25.884;2022-12-10T03:16:13;99995.50;;;7.69;100.00
47524;BME280;33253;42.144;25.884;2022-12-10T03:18:39;99988.03;;;7.75;100.00
47524;BME280;33253;42.144;25.884;2022-12-10T03:21:06;99968.44;;;7.77;100.00
47524;BME280;33253;42.144;25.884;2022-12-10T03:23:36;99974.00;;;7.88;100.00
47524;BME280;33253;42.144;25.884;2022-12-10T03:26:03;99976.53;;;7.86;100.00
47524;BME280;33253;42.144;25.884;2022-12-10T03:28:32;99976.44;;;7.85;100.00
47524;BME280;33253;42.144;25.884;2022-12-10T03:31:00;99968.06;;;7.89;100.00
47524;BME280;33253;42.144;25.884;2022-12-10T03:33:27;99965.66;;;7.93;100.00
47524;BME280;33253;42.144;25.884;2022-12-10T03:35:53;99904.97;;;7.53;100.00
47524;BME280;33253;42.144;25.884;2022-12-10T03:38:18;99972.50;;;7.93;100.00
47524;BME280;33253;42.144;25.884;2022-12-10T03:40:44;99968.97;;;7.91;100.00
47524;BME280;33253;42.144;25.884;2022-12-10T03:43:12;99964.59;;;7.88;100.00
47524;BME280;33253;42.144;25.884;2022-12-10T03:45:40;99974.06;;;7.89;100.00
47524;BME280;33253;42.144;25.884;2022-12-10T03:48:05;99976.63;;;7.89;100.00
47524;BME280;33253;42.144;25.884;2022-12-10T03:50:31;99937.91;;;7.64;100.00
47524;BME280;33253;42.144;25.884;2022-12-10T03:52:56;99969.63;;;7.85;100.00
47524;BME280;33253;42.144;25.884;2022-12-10T03:55:22;99959.91;;;7.78;100.00
47524;BME280;33253;42.144;25.884;2022-12-10T03:57:47;99966.94;;;7.82;100.00
47524;BME280;33253;42.144;25.884;2022-12-10T04:00:13;99981.59;;;7.85;100.00
47524;BME280;33253;42.144;25.884;2022-12-10T04:02:39;99970.06;;;7.75;100.00
47524;BME280;33253;42.144;25.884;2022-12-10T04:05:05;99970.75;;;7.71;100.00
47524;BME280;33253;42.144;25.884;2022-12-10T04:07:32;99972.78;;;7.57;100.00
47524;BME280;33253;42.144;25.884;2022-12-10T04:09:57;99973.72;;;7.38;100.00
47524;BME280;33253;42.144;25.884;2022-12-10T04:12:23;99975.19;;;7.33;100.00
47524;BME280;33253;42.144;25.884;2022-12-10T04:14:48;99961.47;;;7.32;100.00
47524;BME280;33253;42.144;25.884;2022-12-10T04:17:32;99966.81;;;7.37;100.00
47524;BME280;33253;42.144;25.884;2022-12-10T04:20:01;99969.50;;;7.40;100.00
47524;BME280;33253;42.144;25.884;2022-12-10T04:22:26;99952.47;;;7.42;100.00
47524;BME280;33253;42.144;25.884;2022-12-10T04:25:12;99971.16;;;7.38;100.00
47524;BME280;33253;42.144;25.884;2022-12-10T04:27:56;99976.19;;;7.36;100.00
47524;BME280;33253;42.144;25.884;2022-12-10T04:30:22;99968.59;;;7.38;100.00
47524;BME280;33253;42.144;25.884;2022-12-10T04:32:47;99968.69;;;7.41;100.00
47524;BME280;33253;42.144;25.884;2022-12-10T04:35:13;99976.84;;;7.52;100.00
47524;BME280;33253;42.144;25.884;2022-12-10T04:37:39;99962.34;;;7.54;100.00
47524;BME280;33253;42.144;25.884;2022-12-10T04:40:05;99968.13;;;7.48;100.00
47524;BME280;33253;42.144;25.884;2022-12-10T04:42:33;99966.44;;;7.49;100.00
47524;BME280;33253;42.144;25.884;2022-12-10T04:44:59;99968.94;;;7.47;100.00
47524;BME280;33253;42.144;25.884;2022-12-10T04:47:25;99970.16;;;7.55;100.00
47524;BME280;33253;42.144;25.884;2022-12-10T04:49:51;99970.06;;;7.54;100.00
47524;BME280;33253;42.144;25.884;2022-12-10T04:52:16;99972.31;;;7.46;100.00
47524;BME280;33253;42.144;25.884;2022-12-10T04:54:42;99973.38;;;7.51;100.00
47524;BME280;33253;42.144;25.884;2022-12-10T04:57:08;99975.16;;;7.52;100.00
47524;BME280;33253;42.144;25.884;2022-12-10T04:59:37;99966.41;;;7.27;100.00
47524;BME280;33253;42.144;25.884;2022-12-10T05:02:04;99964.34;;;7.19;100.00
47524;BME280;33253;42.144;25.884;2022-12-10T05:04:30;99965.91;;;7.15;100.00
47524;BME280;33253;42.144;25.884;2022-12-10T05:06:56;99969.47;;;7.19;100.00
47524;BME280;33253;42.144;25.884;2022-12-10T05:09:21;99964.28;;;7.17;100.00
47524;BME280;33253;42.144;25.884;2022-12-10T05:11:48;99969.31;;;7.14;100.00
47524;BME280;33253;42.144;25.884;2022-12-10T05:14:14;99972.84;;;7.18;100.00
47524;BME280;33253;42.144;25.884;2022-12-10T05:16:40;99962.84;;;7.24;100.00
47524;BME280;33253;42.144;25.884;2022-12-10T05:19:05;99956.09;;;7.26;100.00
47524;BME280;33253;42.144;25.884;2022-12-10T05:21:31;99957.84;;;7.27;100.00
47524;BME280;33253;42.144;25.884;2022-12-10T05:24:16;99968.44;;;7.35;100.00
47524;BME280;33253;42.144;25.884;2022-12-10T05:26:42;99974.06;;;7.26;100.00
47524;BME280;33253;42.144;25.884;2022-12-10T05:29:08;99968.94;;;7.26;100.00
47524;BME280;33253;42.144;25.884;2022-12-10T05:31:34;99977.75;;;7.33;100.00
47524;BME280;33253;42.144;25.884;2022-12-10T05:33:59;99969.25;;;7.34;100.00
47524;BME280;33253;42.144;25.884;2022-12-10T05:36:27;99973.88;;;7.42;100.00
47524;BME280;33253;42.144;25.884;2022-12-10T05:38:54;99974.13;;;7.49;100.00
47524;BME280;33253;42.144;25.884;2022-12-10T05:41:22;99960.44;;;7.48;100.00
47524;BME280;33253;42.144;25.884;2022-12-10T05:43:48;99969.56;;;7.63;100.00
47524;BME280;33253;42.144;25.884;2022-12-10T05:46:22;99969.44;;;7.59;100.00
47524;BME280;33253;42.144;25.884;2022-12-10T05:48:48;99960.75;;;7.56;100.00
47524;BME280;33253;42.144;25.884;2022-12-10T05:51:18;99968.94;;;7.68;100.00
47524;BME280;33253;42.144;25.884;2022-12-10T05:53:44;99967.38;;;7.72;100.00
47524;BME280;33253;42.144;25.884;2022-12-10T05:56:14;99970.91;;;7.74;100.00
47524;BME280;33253;42.144;25.884;2022-12-10T05:58:41;99975.34;;;7.78;100.00
47524;BME280;33253;42.144;25.884;2022-12-10T06:01:09;99978.97;;;7.83;100.00
47524;BME280;33253;42.144;25.884;2022-12-10T06:03:35;99985.81;;;7.83;100.00
47524;BME280;33253;42.144;25.884;2022-12-10T06:06:01;99974.34;;;7.74;100.00
47524;BME280;33253;42.144;25.884;2022-12-10T06:08:26;99959.22;;;7.61;100.00
47524;BME280;33253;42.144;25.884;2022-12-10T06:10:51;99968.19;;;7.71;100.00
47524;BME280;33253;42.144;25.884;2022-12-10T06:13:19;99926.84;;;7.65;100.00
47524;BME280;33253;42.144;25.884;2022-12-10T06:15:44;99940.69;;;7.68;100.00
47524;BME280;33253;42.144;25.884;2022-12-10T06:18:10;99953.25;;;7.83;100.00
47524;BME280;33253;42.144;25.884;2022-12-10T06:20:38;99950.13;;;7.90;100.00
47524;BME280;33253;42.144;25.884;2022-12-10T06:23:04;99953.03;;;8.00;100.00
47524;BME280;33253;42.144;25.884;2022-12-10T06:25:30;99953.13;;;8.01;100.00
47524;BME280;33253;42.144;25.884;2022-12-10T06:27:56;99974.13;;;8.14;100.00
47524;BME280;33253;42.144;25.884;2022-12-10T06:30:21;99959.41;;;8.09;100.00
47524;BME280;33253;42.144;25.884;2022-12-10T06:32:46;99969.94;;;8.16;100.00
47524;BME280;33253;42.144;25.884;2022-12-10T06:35:12;99951.66;;;8.08;100.00
47524;BME280;33253;42.144;25.884;2022-12-10T06:37:37;99951.72;;;8.09;100.00
47524;BME280;33253;42.144;25.884;2022-12-10T06:40:04;99968.31;;;8.18;100.00
47524;BME280;33253;42.144;25.884;2022-12-10T06:42:29;99963.00;;;8.13;100.00
47524;BME280;33253;42.144;25.884;2022-12-10T06:44:55;99954.56;;;8.17;100.00
47524;BME280;33253;42.144;25.884;2022-12-10T06:47:20;99960.06;;;8.26;100.00
47524;BME280;33253;42.144;25.884;2022-12-10T06:49:46;99943.38;;;8.15;100.00
47524;BME280;33253;42.144;25.884;2022-12-10T06:52:11;99944.28;;;8.17;100.00
47524;BME280;33253;42.144;25.884;2022-12-10T06:54:37;99954.94;;;8.26;100.00
47524;BME280;33253;42.144;25.884;2022-12-10T06:57:02;99914.84;;;8.09;100.00
47524;BME280;33253;42.144;25.884;2022-12-10T06:59:28;99936.56;;;8.17;100.00
47524;BME280;33253;42.144;25.884;2022-12-10T07:01:53;99941.13;;;8.24;100.00
47524;BME280;33253;42.144;25.884;2022-12-10T07:04:19;99936.94;;;8.26;100.00
47524;BME280;33253;42.144;25.884;2022-12-10T07:06:44;99943.00;;;8.29;100.00
47524;BME280;33253;42.144;25.884;2022-12-10T07:09:10;99941.41;;;8.32;100.00
47524;BME280;33253;42.144;25.884;2022-12-10T07:11:36;99944.97;;;8.36;100.00
47524;BME280;33253;42.144;25.884;2022-12-10T07:14:01;99936.22;;;8.31;100.00
47524;BME280;33253;42.144;25.884;2022-12-10T07:16:30;99941.25;;;8.28;100.00
47524;BME280;33253;42.144;25.884;2022-12-10T07:18:59;99957.59;;;8.30;100.00
47524;BME280;33253;42.144;25.884;2022-12-10T07:21:27;99957.47;;;8.25;100.00
47524;BME280;33253;42.144;25.884;2022-12-10T07:23:55;99946.63;;;8.11;100.00
47524;BME280;33253;42.144;25.884;2022-12-10T07:26:27;99950.38;;;8.19;100.00
47524;BME280;33253;42.144;25.884;2022-12-10T07:28:53;99892.00;;;7.71;100.00
47524;BME280;33253;42.144;25.884;2022-12-10T07:31:19;99881.63;;;7.47;100.00
47524;BME280;33253;42.144;25.884;2022-12-10T07:33:45;99875.47;;;7.43;100.00
47524;BME280;33253;42.144;25.884;2022-12-10T07:36:11;99935.22;;;7.82;100.00
47524;BME280;33253;42.144;25.884;2022-12-10T07:38:37;99946.84;;;7.94;100.00
47524;BME280;33253;42.144;25.884;2022-12-10T07:41:08;99932.19;;;7.92;100.00
47524;BME280;33253;42.144;25.884;2022-12-10T07:43:36;99939.38;;;8.01;100.00
47524;BME280;33253;42.144;25.884;2022-12-10T07:46:06;99930.28;;;8.09;100.00
47524;BME280;33253;42.144;25.884;2022-12-10T07:48:34;99923.63;;;8.14;100.00
47524;BME280;33253;42.144;25.884;2022-12-10T07:51:00;99932.19;;;8.15;100.00
47524;BME280;33253;42.144;25.884;2022-12-10T07:53:25;99924.66;;;8.19;100.00
47524;BME280;33253;42.144;25.884;2022-12-10T07:55:51;99918.81;;;8.23;100.00
47524;BME280;33253;42.144;25.884;2022-12-10T07:58:16;99898.84;;;8.16;100.00
47524;BME280;33253;42.144;25.884;2022-12-10T08:00:42;99906.06;;;8.26;100.00
47524;BME280;33253;42.144;25.884;2022-12-10T08:03:07;99930.03;;;8.48;100.00
47524;BME280;33253;42.144;25.884;2022-12-10T08:05:32;99917.34;;;8.53;100.00
47524;BME280;33253;42.144;25.884;2022-12-10T08:07:58;99866.56;;;8.24;100.00
47524;BME280;33253;42.144;25.884;2022-12-10T08:10:24;99920.53;;;8.70;100.00
47524;BME280;33253;42.144;25.884;2022-12-10T08:12:49;99917.78;;;8.65;100.00
47524;BME280;33253;42.144;25.884;2022-12-10T08:15:14;99898.94;;;8.19;100.00
47524;BME280;33253;42.144;25.884;2022-12-10T08:17:40;99914.19;;;8.37;100.00
47524;BME280;33253;42.144;25.884;2022-12-10T08:20:06;99914.34;;;8.42;100.00
47524;BME280;33253;42.144;25.884;2022-12-10T08:22:32;99905.03;;;8.46;100.00
47524;BME280;33253;42.144;25.884;2022-12-10T08:24:59;99906.34;;;8.57;100.00
47524;BME280;33253;42.144;25.884;2022-12-10T08:27:24;99896.00;;;8.55;100.00
47524;BME280;33253;42.144;25.884;2022-12-10T08:29:50;99920.19;;;8.61;100.00
47524;BME280;33253;42.144;25.884;2022-12-10T08:32:15;99922.94;;;8.65;100.00
47524;BME280;33253;42.144;25.884;2022-12-10T08:34:41;99920.91;;;8.56;100.00
47524;BME280;33253;42.144;25.884;2022-12-10T08:37:06;99914.22;;;8.62;100.00
47524;BME280;33253;42.144;25.884;2022-12-10T08:39:31;99867.28;;;8.45;100.00
47524;BME280;33253;42.144;25.884;2022-12-10T08:41:58;99901.81;;;8.74;100.00
47524;BME280;33253;42.144;25.884;2022-12-10T08:44:25;99885.59;;;8.77;100.00
47524;BME280;33253;42.144;25.884;2022-12-10T08:46:50;99901.34;;;8.86;100.00
47524;BME280;33253;42.144;25.884;2022-12-10T08:49:16;99884.22;;;8.86;100.00
47524;BME280;33253;42.144;25.884;2022-12-10T08:51:42;99895.22;;;8.82;100.00
47524;BME280;33253;42.144;25.884;2022-12-10T08:54:07;99898.09;;;8.92;100.00
47524;BME280;33253;42.144;25.884;2022-12-10T08:56:33;99884.88;;;9.06;100.00
47524;BME280;33253;42.144;25.884;2022-12-10T08:58:58;99860.72;;;9.03;100.00
47524;BME280;33253;42.144;25.884;2022-12-10T09:01:24;99893.78;;;9.16;100.00
47524;BME280;33253;42.144;25.884;2022-12-10T09:03:49;99887.66;;;9.13;100.00
47524;BME280;33253;42.144;25.884;2022-12-10T09:06:18;99883.56;;;9.19;100.00
47524;BME280;33253;42.144;25.884;2022-12-10T09:08:44;99844.63;;;9.09;100.00
47524;BME280;33253;42.144;25.884;2022-12-10T09:11:24;99871.19;;;9.33;100.00
47524;BME280;33253;42.144;25.884;2022-12-10T09:13:50;99831.16;;;9.17;100.00
47524;BME280;33253;42.144;25.884;2022-12-10T09:16:15;99865.38;;;9.41;100.00
47524;BME280;33253;42.144;25.884;2022-12-10T09:18:41;99833.94;;;9.23;100.00
47524;BME280;33253;42.144;25.884;2022-12-10T09:21:09;99862.94;;;9.45;100.00
47524;BME280;33253;42.144;25.884;2022-12-10T09:23:35;99861.31;;;9.47;100.00
47524;BME280;33253;42.144;25.884;2022-12-10T09:26:05;99851.78;;;9.45;100.00
47524;BME280;33253;42.144;25.884;2022-12-10T09:28:30;99811.03;;;9.33;100.00
47524;BME280;33253;42.144;25.884;2022-12-10T09:30:58;99827.06;;;9.51;100.00
47524;BME280;33253;42.144;25.884;2022-12-10T09:33:25;99828.06;;;9.57;100.00
47524;BME280;33253;42.144;25.884;2022-12-10T09:35:50;99821.44;;;9.63;100.00
47524;BME280;33253;42.144;25.884;2022-12-10T09:38:16;99818.88;;;9.65;100.00
47524;BME280;33253;42.144;25.884;2022-12-10T09:40:47;99836.34;;;9.74;100.00
47524;BME280;33253;42.144;25.884;2022-12-10T09:49:06;99801.75;;;9.96;100.00
47524;BME280;33253;42.144;25.884;2022-12-10T09:51:37;99804.19;;;9.91;100.00
47524;BME280;33253;42.144;25.884;2022-12-10T09:59:52;99754.56;;;9.39;100.00
47524;BME280;33253;42.144;25.884;2022-12-10T10:04:46;99742.97;;;9.53;100.00
47524;BME280;33253;42.144;25.884;2022-12-10T10:07:26;99780.00;;;9.87;100.00
47524;BME280;33253;42.144;25.884;2022-12-10T10:10:06;99770.75;;;9.94;100.00
47524;BME280;33253;42.144;25.884;2022-12-10T10:12:34;99731.66;;;9.79;100.00
47524;BME280;33253;42.144;25.884;2022-12-10T10:15:10;99763.69;;;10.19;100.00
47524;BME280;33253;42.144;25.884;2022-12-10T10:18:02;99754.31;;;10.23;100.00
47524;BME280;33253;42.144;25.884;2022-12-10T10:20:30;99739.34;;;10.09;100.00
47524;BME280;33253;42.144;25.884;2022-12-10T10:22:56;99764.00;;;10.31;100.00
47524;BME280;33253;42.144;25.884;2022-12-10T10:25:24;99767.38;;;10.29;100.00
47524;BME280;33253;42.144;25.884;2022-12-10T10:27:49;99744.66;;;10.15;100.00
47524;BME280;33253;42.144;25.884;2022-12-10T10:30:21;99738.72;;;10.18;100.00
47524;BME280;33253;42.144;25.884;2022-12-10T10:32:51;99737.34;;;10.31;100.00
47524;BME280;33253;42.144;25.884;2022-12-10T10:38:15;99722.41;;;10.51;100.00
47524;BME280;33253;42.144;25.884;2022-12-10T10:40:43;99727.72;;;10.57;100.00
47524;BME280;33253;42.144;25.884;2022-12-10T10:43:19;99725.41;;;10.68;100.00
47524;BME280;33253;42.144;25.884;2022-12-10T10:46:01;99713.03;;;10.91;100.00
47524;BME280;33253;42.144;25.884;2022-12-10T10:48:28;99702.09;;;11.02;100.00
47524;BME280;33253;42.144;25.884;2022-12-10T10:56:09;99673.78;;;11.47;100.00
47524;BME280;33253;42.144;25.884;2022-12-10T10:58:47;99677.44;;;11.59;100.00
47524;BME280;33253;42.144;25.884;2022-12-10T11:01:13;99639.41;;;11.52;100.00
47524;BME280;33253;42.144;25.884;2022-12-10T11:03:46;99683.06;;;11.82;100.00
47524;BME280;33253;42.144;25.884;2022-12-10T11:06:13;99684.97;;;11.92;100.00
47524;BME280;33253;42.144;25.884;2022-12-10T11:08:41;99681.59;;;11.95;100.00
47524;BME280;33253;42.144;25.884;2022-12-10T11:11:13;99674.69;;;11.94;100.00
47524;BME280;33253;42.144;25.884;2022-12-10T11:13:42;99664.50;;;12.02;100.00
47524;BME280;33253;42.144;25.884;2022-12-10T11:16:22;99656.88;;;12.08;100.00
47524;BME280;33253;42.144;25.884;2022-12-10T11:18:58;99675.09;;;12.16;100.00
47524;BME280;33253;42.144;25.884;2022-12-10T11:21:31;99669.69;;;12.02;100.00
47524;BME280;33253;42.144;25.884;2022-12-10T11:23:58;99672.09;;;11.94;100.00
47524;BME280;33253;42.144;25.884;2022-12-10T11:26:51;99667.91;;;11.97;100.00
47524;BME280;33253;42.144;25.884;2022-12-10T11:29:46;99662.03;;;12.06;100.00
47524;BME280;33253;42.144;25.884;2022-12-10T11:38:02;99655.56;;;12.35;100.00
47524;BME280;33253;42.144;25.884;2022-12-10T11:43:20;99660.84;;;12.39;100.00
47524;BME280;33253;42.144;25.884;2022-12-10T11:51:51;99621.19;;;12.42;100.00
47524;BME280;33253;42.144;25.884;2022-12-10T12:08:39;99604.78;;;12.41;100.00
47524;BME280;33253;42.144;25.884;2022-12-10T12:14:22;99591.19;;;12.55;100.00
47524;BME280;33253;42.144;25.884;2022-12-10T12:17:35;99579.03;;;12.52;100.00
47524;BME280;33253;42.144;25.884;2022-12-10T12:22:55;99582.56;;;12.56;100.00
47524;BME280;33253;42.144;25.884;2022-12-10T12:25:31;99575.78;;;12.64;100.00
47524;BME280;33253;42.144;25.884;2022-12-10T12:28:09;99577.63;;;12.74;100.00
47524;BME280;33253;42.144;25.884;2022-12-10T12:30:37;99567.25;;;12.73;100.00
47524;BME280;33253;42.144;25.884;2022-12-10T12:33:58;99576.09;;;12.87;100.00
47524;BME280;33253;42.144;25.884;2022-12-10T12:36:19;99570.03;;;12.87;100.00
47524;BME280;33253;42.144;25.884;2022-12-10T12:49:55;99567.41;;;12.84;100.00
47524;BME280;33253;42.144;25.884;2022-12-10T12:55:03;99546.69;;;12.84;100.00
47524;BME280;33253;42.144;25.884;2022-12-10T12:57:53;99516.31;;;12.70;100.00
47524;BME280;33253;42.144;25.884;2022-12-10T13:00:22;99545.09;;;12.95;100.00
47524;BME280;33253;42.144;25.884;2022-12-10T13:02:56;99549.38;;;12.93;100.00
47524;BME280;33253;42.144;25.884;2022-12-10T13:05:44;99535.59;;;12.95;100.00
47524;BME280;33253;42.144;25.884;2022-12-10T13:11:27;99534.75;;;12.98;100.00
47524;BME280;33253;42.144;25.884;2022-12-10T13:22:10;99545.19;;;13.00;100.00
47524;BME280;33253;42.144;25.884;2022-12-10T13:29:56;99535.66;;;12.99;100.00
47524;BME280;33253;42.144;25.884;2022-12-10T13:46:23;99534.84;;;13.06;100.00
47524;BME280;33253;42.144;25.884;2022-12-10T13:48:51;99534.97;;;13.14;100.00
47524;BME280;33253;42.144;25.884;2022-12-10T13:57:30;99523.91;;;13.29;100.00
47524;BME280;33253;42.144;25.884;2022-12-10T14:00:15;99530.22;;;13.51;100.00
47524;BME280;33253;42.144;25.884;2022-12-10T14:03:03;99527.00;;;13.80;100.00
47524;BME280;33253;42.144;25.884;2022-12-10T14:08:17;99501.44;;;14.32;100.00
47524;BME280;33253;42.144;25.884;2022-12-10T14:10:44;99537.22;;;14.77;100.00
47524;BME280;33253;42.144;25.884;2022-12-10T14:13:13;99498.16;;;14.64;100.00
47524;BME280;33253;42.144;25.884;2022-12-10T14:15:41;99541.63;;;15.01;100.00
47524;BME280;33253;42.144;25.884;2022-12-10T14:18:13;99520.88;;;15.06;100.00
47524;BME280;33253;42.144;25.884;2022-12-10T14:20:45;99521.72;;;15.14;100.00
47524;BME280;33253;42.144;25.884;2022-12-10T14:23:28;99529.56;;;15.17;100.00
47524;BME280;33253;42.144;25.884;2022-12-10T14:26:12;99515.69;;;15.15;100.00
47524;BME280;33253;42.144;25.884;2022-12-10T14:28:45;99489.63;;;14.93;100.00
47524;BME280;33253;42.144;25.884;2022-12-10T14:31:17;99515.66;;;15.09;100.00
47524;BME280;33253;42.144;25.884;2022-12-10T14:33:45;99511.31;;;14.97;100.00
47524;BME280;33253;42.144;25.884;2022-12-10T14:36:51;99500.03;;;14.92;100.00
47524;BME280;33253;42.144;25.884;2022-12-10T14:39:20;99500.84;;;14.86;100.00
47524;BME280;33253;42.144;25.884;2022-12-10T14:41:49;99495.63;;;14.81;100.00
47524;BME280;33253;42.144;25.884;2022-12-10T14:44:16;99492.16;;;14.73;100.00
47524;BME280;33253;42.144;25.884;2022-12-10T14:46:43;99493.00;;;14.72;100.00
47524;BME280;33253;42.144;25.884;2022-12-10T14:49:16;99460.81;;;14.42;100.00
47524;BME280;33253;42.144;25.884;2022-12-10T14:51:42;99495.50;;;14.53;100.00
47524;BME280;33253;42.144;25.884;2022-12-10T14:54:27;99485.88;;;14.38;100.00
47524;BME280;33253;42.144;25.884;2022-12-10T14:56:54;99489.25;;;14.25;100.00
47524;BME280;33253;42.144;25.884;2022-12-10T14:59:27;99491.81;;;14.19;100.00
47524;BME280;33253;42.144;25.884;2022-12-10T15:01:57;99485.75;;;14.14;100.00
47524;BME280;33253;42.144;25.884;2022-12-10T15:04:31;99479.69;;;14.18;100.00